地図

経路データ

SID SEASON NUMBER BASIN SUBBASIN NAME ISO_TIME NATURE LAT LON WMO_WIND WMO_PRES WMO_AGENCY TRACK_TYPE DIST2LAND LANDFALL IFLAG USA_AGENCY USA_ATCF_ID USA_LAT USA_LON USA_RECORD USA_STATUS USA_WIND USA_PRES USA_SSHS USA_R34_NE USA_R34_SE USA_R34_SW USA_R34_NW USA_R50_NE USA_R50_SE USA_R50_SW USA_R50_NW USA_R64_NE USA_R64_SE USA_R64_SW USA_R64_NW USA_POCI USA_ROCI USA_RMW USA_EYE TOKYO_LAT TOKYO_LON TOKYO_GRADE TOKYO_WIND TOKYO_PRES TOKYO_R50_DIR TOKYO_R50_LONG TOKYO_R50_SHORT TOKYO_R30_DIR TOKYO_R30_LONG TOKYO_R30_SHORT TOKYO_LAND CMA_LAT CMA_LON CMA_CAT CMA_WIND CMA_PRES HKO_LAT HKO_LON HKO_CAT HKO_WIND HKO_PRES NEWDELHI_LAT NEWDELHI_LON NEWDELHI_GRADE NEWDELHI_WIND NEWDELHI_PRES NEWDELHI_CI NEWDELHI_DP NEWDELHI_POCI REUNION_LAT REUNION_LON REUNION_TYPE REUNION_WIND REUNION_PRES REUNION_TNUM REUNION_CI REUNION_RMW REUNION_R34_NE REUNION_R34_SE REUNION_R34_SW REUNION_R34_NW REUNION_R50_NE REUNION_R50_SE REUNION_R50_SW REUNION_R50_NW REUNION_R64_NE REUNION_R64_SE REUNION_R64_SW REUNION_R64_NW BOM_LAT BOM_LON BOM_TYPE BOM_WIND BOM_PRES BOM_TNUM BOM_CI BOM_RMW BOM_R34_NE BOM_R34_SE BOM_R34_SW BOM_R34_NW BOM_R50_NE BOM_R50_SE BOM_R50_SW BOM_R50_NW BOM_R64_NE BOM_R64_SE BOM_R64_SW BOM_R64_NW BOM_ROCI BOM_POCI BOM_EYE BOM_POS_METHOD BOM_PRES_METHOD NADI_LAT NADI_LON NADI_CAT NADI_WIND NADI_PRES WELLINGTON_LAT WELLINGTON_LON WELLINGTON_WIND WELLINGTON_PRES DS824_LAT DS824_LON DS824_STAGE DS824_WIND DS824_PRES TD9636_LAT TD9636_LON TD9636_STAGE TD9636_WIND TD9636_PRES TD9635_LAT TD9635_LON TD9635_WIND TD9635_PRES TD9635_ROCI NEUMANN_LAT NEUMANN_LON NEUMANN_CLASS NEUMANN_WIND NEUMANN_PRES MLC_LAT MLC_LON MLC_CLASS MLC_WIND MLC_PRES USA_GUST BOM_GUST BOM_GUST_PER REUNION_GUST REUNION_GUST_PER USA_SEAHGT USA_SEARAD_NE USA_SEARAD_SE USA_SEARAD_SW USA_SEARAD_NW STORM_SPEED STORM_DIR
1890194N24128 1890 20 WP MM NOT_NAMED 1890-07-12 16:00:00 NR 24.0000 127.500 main 567 513 __________O___ -1 24.0000 127.500 7 16 298
1890194N24128 1890 20 WP MM NOT_NAMED 1890-07-12 18:00:00 NR 24.2473 126.987 main 513 426 __________P___ -1 24.2473 126.987 7 16 298
1890194N24128 1890 20 WP MM NOT_NAMED 1890-07-12 21:00:00 NR 24.6112 126.233 main 426 352 __________P___ -1 24.6112 126.233 7 15 298
1890194N24128 1890 20 WP MM NOT_NAMED 1890-07-13 00:00:00 NR 24.9618 125.523 main 352 293 __________P___ -1 24.9618 125.523 7 14 299
1890194N24128 1890 20 WP MM NOT_NAMED 1890-07-13 03:00:00 NR 25.2941 124.889 main 293 275 __________P___ -1 25.2941 124.889 7 13 300
1890194N24128 1890 20 WP MM NOT_NAMED 1890-07-13 04:00:00 NR 25.4000 124.700 main 275 250 __________O___ -1 25.4000 124.700 4 11 303
1890194N24128 1890 20 WP MM NOT_NAMED 1890-07-13 06:00:00 NR 25.6040 124.357 main 250 215 __________P___ -1 25.6040 124.357 4 10 305
1890194N24128 1890 20 WP MM NOT_NAMED 1890-07-13 09:00:00 NR 25.8924 123.907 main 215 194 __________P___ -1 25.8924 123.907 4 10 306
1890194N24128 1890 20 WP MM NOT_NAMED 1890-07-13 12:00:00 NR 26.1627 123.491 main 201 188 __________P___ -1 26.1627 123.491 4 9 305
1890194N24128 1890 20 WP MM NOT_NAMED 1890-07-13 15:00:00 NR 26.4179 123.057 main 191 185 __________P___ -1 26.4179 123.057 4 9 302
1890194N24128 1890 20 WP MM NOT_NAMED 1890-07-13 16:00:00 NR 26.5000 122.900 main 190 185 __________O___ -1 26.5000 122.900 4 10 301
1890194N24128 1890 20 WP MM NOT_NAMED 1890-07-13 18:00:00 NR 26.6843 122.556 main 195 144 __________P___ -1 26.6843 122.556 4 11 299
1890194N24128 1890 20 WP MM NOT_NAMED 1890-07-13 21:00:00 NR 26.9489 122.002 main 144 76 __________P___ -1 26.9489 122.002 4 11 296
1890194N24128 1890 20 WP MM NOT_NAMED 1890-07-14 00:00:00 NR 27.1803 121.397 main 76 9 __________P___ -1 27.1803 121.397 4 12 290
1890194N24128 1890 20 WP MM NOT_NAMED 1890-07-14 03:00:00 NR 27.3570 120.735 main 9 0 __________P___ -1 27.3570 120.735 4 12 285
1890194N24128 1890 20 WP MM NOT_NAMED 1890-07-14 04:00:00 NR 27.4000 120.500 main 0 0 __________O___ -1 27.4000 120.500 4 13 278
1890194N24128 1890 20 WP MM NOT_NAMED 1890-07-14 06:00:00 NR 27.4511 120.019 main 0 0 __________P___ -1 27.4511 120.019 4 13 274
1890194N24128 1890 20 WP MM NOT_NAMED 1890-07-14 09:00:00 NR 27.4710 119.248 main 0 0 __________P___ -1 27.4710 119.248 4 14 270
1890194N24128 1890 20 WP MM NOT_NAMED 1890-07-14 12:00:00 NR 27.4480 118.432 main 0 0 __________P___ -1 27.4480 118.432 4 15 268
1890194N24128 1890 20 WP MM NOT_NAMED 1890-07-14 15:00:00 NR 27.4107 117.586 main 0 0 __________P___ -1 27.4107 117.586 4 15 267
1890194N24128 1890 20 WP MM NOT_NAMED 1890-07-14 16:00:00 NR 27.4000 117.300 main 0 0 __________O___ -1 27.4000 117.300 7 15 268
1890194N24128 1890 20 WP MM NOT_NAMED 1890-07-14 18:00:00 NR 27.3860 116.724 main 0 0 __________P___ -1 27.3860 116.724 7 15 269
1890194N24128 1890 20 WP MM NOT_NAMED 1890-07-14 21:00:00 NR 27.3804 115.854 main 0 0 __________P___ -1 27.3804 115.854 7 16 270
1890194N24128 1890 20 WP MM NOT_NAMED 1890-07-15 00:00:00 NR 27.3865 114.976 main 0 0 __________P___ -1 27.3865 114.976 7 16 271
1890194N24128 1890 20 WP MM NOT_NAMED 1890-07-15 03:00:00 NR 27.3969 114.094 main 0 0 __________P___ -1 27.3969 114.094 7 16 271
1890194N24128 1890 20 WP MM NOT_NAMED 1890-07-15 04:00:00 NR 27.4000 113.800 main 0 __________O___ -1 27.4000 113.800 7 16 271

デジタル台風データ・検索

IBTrACS Databaseについて

本データベースは、米国NOAAが公開する1842年以降の世界の熱帯低気圧のベストトラックデータアーカイブInternational Best Track Archive for Climate Stewardship (IBTrACS)を、ウェブで閲覧しやすい形式に変換したものです。

最終更新日:2021-10-08